Time;durP1;ratioP1;P1;durP2;ratioP2;P2;SDS_P1;SDS_P2;PMS_P1;PMS_P2;Temp;Humidity;BMP_temperature;BMP_pressure;BME280_temperature;BME280_humidity;BME280_pressure;Samples;Min_cycle;Max_cycle;Signal;HPM_P1;HPM_P2
2021/03/15 00:00:09;;;;;;;5.97;5.03;;;;;;;5.47;71.86;100268.59;686736;28;22400;-60
2021/03/15 00:00:36;;;;;;;5.95;5.13;;;;;;;5.47;71.75;100270.41;686693;28;24443;-61
2021/03/15 00:00:59;;;;;;;7.40;5.65;;;;;;;5.46;71.72;100274.94;681460;28;161110;-61
2021/03/15 00:01:20;;;;;;;5.80;5.20;;;;;;;5.47;71.97;100270.41;685037;28;69478;-63
2021/03/15 00:01:41;;;;;;;5.63;5.03;;;;;;;5.48;71.72;100272.09;686746;28;22412;-61
2021/03/15 00:02:02;;;;;;;5.70;5.10;;;;;;;5.48;71.83;100269.44;686226;28;23491;-62
2021/03/15 00:02:23;;;;;;;5.30;4.80;;;;;;;5.48;71.89;100269.44;686615;28;21529;-62
2021/03/15 00:02:46;;;;;;;6.55;5.20;;;;;;;5.46;71.79;100274.13;687124;28;23426;-62
2021/03/15 00:03:07;;;;;;;5.40;4.88;;;;;;;5.44;71.68;100268.06;686323;28;69467;-62
2021/03/15 00:03:28;;;;;;;5.00;4.50;;;;;;;5.46;71.72;100274.13;687363;28;8974;-62
2021/03/15 00:03:50;;;;;;;6.68;4.95;;;;;;;5.45;71.71;100267.88;687031;28;24856;-62
2021/03/15 00:04:11;;;;;;;7.20;5.30;;;;;;;5.45;71.72;100272.41;686305;28;39244;-62
2021/03/15 00:04:32;;;;;;;6.20;5.22;;;;;;;5.45;71.81;100270.56;687298;28;1193;-62
2021/03/15 00:04:53;;;;;;;7.45;5.10;;;;;;;5.45;71.60;100275.09;687171;28;11385;-62
2021/03/15 00:05:16;;;;;;;7.65;5.43;;;;;;;5.45;71.69;100275.09;687332;28;883;-62
2021/03/15 00:05:38;;;;;;;6.90;5.63;;;;;;;5.45;71.90;100270.56;687046;28;41501;-60
2021/03/15 00:05:59;;;;;;;5.75;5.15;;;;;;;5.44;72.02;100268.06;688373;28;42783;-61
2021/03/15 00:06:20;;;;;;;5.55;5.00;;;;;;;5.44;71.86;100265.38;689968;28;4282;-61
2021/03/15 00:06:41;;;;;;;5.63;5.00;;;;;;;5.44;71.92;100271.59;689343;28;18945;-62
2021/03/15 00:07:02;;;;;;;5.45;4.93;;;;;;;5.45;71.99;100267.88;689592;28;23533;-61
2021/03/15 00:07:24;;;;;;;5.43;4.93;;;;;;;5.44;71.73;100270.72;688231;28;44387;-62
2021/03/15 00:07:45;;;;;;;6.32;5.35;;;;;;;5.44;72.03;100270.72;688919;28;22946;-62
2021/03/15 00:08:07;;;;;;;5.82;4.90;;;;;;;5.41;72.18;100270.03;688227;28;23484;-61
2021/03/15 00:08:28;;;;;;;6.72;5.50;;;;;;;5.45;71.95;100272.41;686336;28;44370;-60
2021/03/15 00:08:49;;;;;;;6.57;5.20;;;;;;;5.44;71.91;100271.59;687076;28;22471;-61
2021/03/15 00:09:11;;;;;;;5.70;5.10;;;;;;;5.46;72.06;100274.13;687214;28;21557;-61
2021/03/15 00:09:32;;;;;;;6.05;5.43;;;;;;;5.45;71.83;100270.56;687132;28;9003;-60
2021/03/15 00:09:53;;;;;;;6.30;5.25;;;;;;;5.44;71.87;100263.56;687014;28;21569;-60
2021/03/15 00:10:15;;;;;;;6.40;5.07;;;;;;;5.43;71.89;100267.22;686620;28;10470;-60
2021/03/15 00:10:36;;;;;;;5.05;4.55;;;;;;;5.44;71.73;100270.72;687109;28;15748;-60
2021/03/15 00:10:58;;;;;;;5.25;4.75;;;;;;;5.43;71.96;100264.53;685936;28;44408;-60
2021/03/15 00:11:19;;;;;;;6.00;5.40;;;;;;;5.43;71.83;100271.75;687783;28;22655;-62
2021/03/15 00:11:40;;;;;;;6.38;5.60;;;;;;;5.43;71.78;100274.41;686964;28;22394;-61
2021/03/15 00:12:03;;;;;;;6.47;5.50;;;;;;;5.40;71.92;100265.69;687026;28;23481;-62
2021/03/15 00:12:24;;;;;;;7.32;5.60;;;;;;;5.44;71.84;100265.38;685259;28;69289;-62
2021/03/15 00:12:45;;;;;;;5.97;5.20;;;;;;;5.44;71.70;100268.06;687033;28;22088;-62
2021/03/15 00:13:07;;;;;;;5.63;5.13;;;;;;;5.42;71.57;100265.53;687774;28;1071;-62
2021/03/15 00:13:30;;;;;;;6.05;5.45;;;;;;;5.41;71.77;100261.19;687323;28;15753;-62
2021/03/15 00:13:51;;;;;;;5.72;5.18;;;;;;;5.41;71.88;100266.53;686313;28;935;-61
2021/03/15 00:14:12;;;;;;;5.75;5.18;;;;;;;5.40;72.15;100268.34;687131;28;13466;-62
2021/03/15 00:14:33;;;;;;;6.10;5.50;;;;;;;5.39;72.00;100272.06;687180;28;12328;-61
2021/03/15 00:14:54;;;;;;;6.15;5.55;;;;;;;5.38;71.88;100264.16;686623;28;22235;-60
2021/03/15 00:15:22;;;;;;;6.38;5.55;;;;;;;5.37;71.80;100259.81;685629;28;61866;-61
2021/03/15 00:15:43;;;;;;;5.72;5.20;;;;;;;5.36;71.83;100267.00;686489;28;19926;-61
2021/03/15 00:16:07;;;;;;;5.75;5.15;;;;;;;5.35;71.96;100270.66;687988;28;11107;-62
2021/03/15 00:16:28;;;;;;;5.97;5.40;;;;;;;5.34;72.04;100260.94;684283;28;90898;-62
2021/03/15 00:16:49;;;;;;;6.63;5.93;;;;;;;5.34;72.19;100268.13;686937;28;22477;-62
2021/03/15 00:17:10;;;;;;;7.25;5.75;;;;;;;5.34;72.11;100266.28;687293;28;21542;-62
2021/03/15 00:17:34;;;;;;;5.95;5.35;;;;;;;5.34;72.21;100268.97;686955;28;15015;-61
2021/03/15 00:17:56;;;;;;;6.18;5.45;;;;;;;5.34;72.16;100268.13;687057;28;15923;-62
2021/03/15 00:18:17;;;;;;;6.55;5.35;;;;;;;5.35;72.27;100269.84;686284;28;36916;-62
2021/03/15 00:18:38;;;;;;;6.35;5.45;;;;;;;5.36;72.12;100274.19;687791;28;24103;-60
2021/03/15 00:18:59;;;;;;;6.25;5.07;;;;;;;5.36;72.17;100269.69;686784;28;23530;-61
2021/03/15 00:19:20;;;;;;;5.88;5.28;;;;;;;5.34;72.19;100266.28;687583;28;945;-58
2021/03/15 00:19:42;;;;;;;6.20;5.60;;;;;;;5.35;72.00;100269.84;686489;28;13010;-62
2021/03/15 00:20:04;;;;;;;6.32;5.60;;;;;;;5.35;71.96;100273.34;685984;28;38649;-62
2021/03/15 00:20:26;;;;;;;6.55;5.82;;;;;;;5.35;72.03;100268.00;684764;28;69483;-59
2021/03/15 00:20:47;;;;;;;6.20;5.60;;;;;;;5.34;72.07;100263.63;686431;28;23473;-62
2021/03/15 00:21:08;;;;;;;6.20;5.45;;;;;;;5.33;72.06;100264.63;687754;28;13995;-61
2021/03/15 00:21:29;;;;;;;8.00;5.60;;;;;;;5.33;72.11;100261.09;686458;28;23493;-62
2021/03/15 00:21:50;;;;;;;6.43;5.30;;;;;;;5.33;72.23;100270.00;686709;28;22328;-62
2021/03/15 00:22:11;;;;;;;7.38;5.57;;;;;;;5.33;72.27;100270.00;685925;28;44433;-62
2021/03/15 00:22:33;;;;;;;6.80;5.70;;;;;;;5.33;72.19;100266.44;686261;28;23468;-61
2021/03/15 00:22:54;;;;;;;7.82;5.50;;;;;;;5.32;72.28;100276.31;686862;28;24346;-61
2021/03/15 00:23:15;;;;;;;7.63;5.10;;;;;;;5.32;72.27;100272.81;686756;28;22418;-61
2021/03/15 00:23:37;;;;;;;5.72;4.90;;;;;;;5.30;72.27;100281.00;688177;28;23404;-65
2021/03/15 00:23:58;;;;;;;7.13;5.65;;;;;;;5.29;72.43;100263.25;686255;28;46314;-57
2021/03/15 00:24:19;;;;;;;6.40;5.60;;;;;;;5.30;72.37;100264.09;687138;28;18715;-62
2021/03/15 00:24:40;;;;;;;6.05;5.00;;;;;;;5.30;72.31;100264.09;687704;28;958;-62
2021/03/15 00:25:01;;;;;;;7.88;5.80;;;;;;;5.31;72.36;100265.78;687353;28;9503;-63
2021/03/15 00:25:23;;;;;;;6.78;5.65;;;;;;;5.30;72.23;100274.78;686266;28;45630;-59
2021/03/15 00:25:44;;;;;;;6.35;5.13;;;;;;;5.28;72.47;100272.25;686190;28;21543;-61
2021/03/15 00:26:06;;;;;;;6.20;5.20;;;;;;;5.28;72.36;100272.25;689271;28;38082;-61
2021/03/15 00:26:27;;;;;;;5.35;4.82;;;;;;;5.29;72.39;100268.59;689270;28;15287;-62
2021/03/15 00:26:48;;;;;;;5.90;5.38;;;;;;;5.30;72.38;100266.75;690129;28;1626;-61
2021/03/15 00:27:11;;;;;;;6.00;5.40;;;;;;;5.29;72.52;100265.94;690312;28;5792;-62
2021/03/15 00:27:32;;;;;;;5.43;4.93;;;;;;;5.29;72.44;100271.28;687891;28;70401;-62
2021/03/15 00:27:53;;;;;;;6.00;5.25;;;;;;;5.28;72.43;100274.94;688865;28;15646;-61
2021/03/15 00:28:15;;;;;;;6.85;5.80;;;;;;;5.27;72.18;100265.25;686484;28;22476;-62
2021/03/15 00:28:36;;;;;;;6.43;5.32;;;;;;;5.27;72.25;100264.41;688448;28;1136;-61
2021/03/15 00:28:57;;;;;;;6.97;5.32;;;;;;;5.26;72.28;100270.75;687433;28;13456;-61
2021/03/15 00:29:21;;;;;;;6.38;5.30;;;;;;;5.26;72.38;100271.59;687132;28;22398;-62
2021/03/15 00:29:42;;;;;;;5.45;4.95;;;;;;;5.27;72.23;100270.59;685292;28;59227;-62
2021/03/15 00:30:05;;;;;;;5.15;4.65;;;;;;;5.26;72.19;100273.44;686782;28;23433;-62
2021/03/15 00:30:26;;;;;;;4.88;4.47;;;;;;;5.27;72.28;100269.78;684061;28;85576;-61
2021/03/15 00:30:48;;;;;;;5.90;5.20;;;;;;;5.27;72.38;100273.28;686591;28;15153;-62
2021/03/15 00:31:09;;;;;;;7.05;5.53;;;;;;;5.30;72.09;100272.13;688261;28;15363;-62
2021/03/15 00:31:30;;;;;;;6.57;5.20;;;;;;;5.30;72.14;100266.75;686282;28;22599;-62
2021/03/15 00:31:51;;;;;;;5.38;4.88;;;;;;;5.28;71.55;100269.59;686939;28;22239;-61
2021/03/15 00:32:12;;;;;;;6.45;4.97;;;;;;;5.28;72.15;100264.22;687085;28;21589;-62
2021/03/15 00:32:33;;;;;;;8.45;5.28;;;;;;;5.30;72.16;100274.78;686839;28;22240;-62
2021/03/15 00:32:55;;;;;;;7.18;5.35;;;;;;;5.30;72.17;100272.97;687116;28;21404;-61
2021/03/15 00:33:16;;;;;;;5.95;5.03;;;;;;;5.29;72.05;100279.31;686098;28;46226;-59
2021/03/15 00:33:37;;;;;;;5.70;5.10;;;;;;;5.32;71.97;100283.53;687074;28;20541;-57
2021/03/15 00:33:58;;;;;;;5.65;5.05;;;;;;;5.30;71.89;100275.66;687147;28;22376;-61
2021/03/15 00:34:19;;;;;;;5.65;5.00;;;;;;;5.30;71.98;100272.13;688416;28;16705;-62
2021/03/15 00:34:40;;;;;;;6.05;5.30;;;;;;;5.31;72.06;100271.13;686629;28;22490;-61
2021/03/15 00:35:02;;;;;;;6.15;5.07;;;;;;;5.31;72.12;100276.47;686289;28;43432;-61
2021/03/15 00:35:23;;;;;;;5.70;4.80;;;;;;;5.31;71.89;100274.63;687134;28;21370;-61
2021/03/15 00:35:44;;;;;;;6.10;5.40;;;;;;;5.31;71.87;100273.81;686632;28;21597;-61
2021/03/15 00:36:07;;;;;;;6.80;5.68;;;;;;;5.32;72.10;100272.81;686310;28;46292;-61
2021/03/15 00:36:28;;;;;;;6.53;5.68;;;;;;;5.32;71.94;100279.00;685437;28;46419;-61
2021/03/15 00:36:49;;;;;;;7.15;5.68;;;;;;;5.31;72.02;100276.47;688771;28;4840;-59
2021/03/15 00:37:10;;;;;;;6.88;5.75;;;;;;;5.30;71.92;100270.28;687467;28;13212;-61
2021/03/15 00:37:31;;;;;;;6.15;5.45;;;;;;;5.29;72.05;100273.97;687303;28;16276;-61
2021/03/15 00:37:53;;;;;;;5.70;5.10;;;;;;;5.29;71.88;100268.59;687664;28;6229;-59
2021/03/15 00:38:14;;;;;;;6.13;5.03;;;;;;;5.28;72.02;100277.63;686774;28;27444;-59
2021/03/15 00:38:35;;;;;;;5.80;5.05;;;;;;;5.29;72.09;100268.59;687125;28;1328;-59
2021/03/15 00:38:56;;;;;;;6.43;5.20;;;;;;;5.29;72.04;100268.59;687056;28;22518;-60
2021/03/15 00:39:17;;;;;;;6.53;5.28;;;;;;;5.30;71.88;100278.34;687586;28;10706;-60
2021/03/15 00:39:38;;;;;;;5.97;5.30;;;;;;;5.29;71.86;100275.81;686707;28;45636;-62
2021/03/15 00:39:59;;;;;;;5.82;5.18;;;;;;;5.27;72.02;100275.13;686715;28;21541;-61
2021/03/15 00:40:22;;;;;;;6.50;5.00;;;;;;;5.29;71.84;100276.63;687190;28;1105;-62
2021/03/15 00:40:43;;;;;;;6.32;5.13;;;;;;;5.27;71.82;100270.59;685780;28;45262;-59
2021/03/15 00:41:04;;;;;;;5.40;4.90;;;;;;;5.27;71.77;100275.13;685877;28;46745;-62
2021/03/15 00:41:25;;;;;;;6.25;5.25;;;;;;;5.26;71.87;100274.25;686912;28;23484;-60
2021/03/15 00:41:46;;;;;;;6.53;5.25;;;;;;;5.27;71.74;100275.97;687035;28;22388;-61
2021/03/15 00:42:07;;;;;;;6.05;5.43;;;;;;;5.31;71.86;100273.81;686880;28;22404;-61
2021/03/15 00:42:30;;;;;;;6.63;5.20;;;;;;;5.31;71.79;100268.44;686669;28;21563;-62
2021/03/15 00:42:52;;;;;;;6.10;5.03;;;;;;;5.32;71.64;100276.31;686517;28;44394;-62
2021/03/15 00:43:13;;;;;;;5.82;5.22;;;;;;;5.29;71.63;100268.59;685003;28;69744;-61
2021/03/15 00:43:37;;;;;;;5.15;4.65;;;;;;;5.29;71.82;100267.78;685047;28;71596;-60
2021/03/15 00:44:00;;;;;;;5.65;5.07;;;;;;;5.26;71.67;100265.41;687073;28;20427;-62
2021/03/15 00:44:21;;;;;;;6.22;5.00;;;;;;;5.27;71.79;100272.44;685369;28;45062;-61
2021/03/15 00:44:42;;;;;;;6.00;4.90;;;;;;;5.30;71.73;100272.13;686521;28;21679;-60
2021/03/15 00:45:07;;;;;;;6.45;5.25;;;;;;;5.30;71.76;100269.44;687150;28;22406;-60
2021/03/15 00:45:29;;;;;;;5.50;4.93;;;;;;;5.29;71.71;100265.09;683576;28;115148;-62
2021/03/15 00:45:50;;;;;;;5.38;4.68;;;;;;;5.26;71.59;100268.91;685362;28;46374;-61
2021/03/15 00:46:11;;;;;;;5.00;4.57;;;;;;;5.28;71.68;100269.59;686675;28;17355;-59
2021/03/15 00:46:32;;;;;;;5.70;5.20;;;;;;;5.23;71.71;100270.09;686244;28;23472;-63
2021/03/15 00:46:53;;;;;;;5.40;4.88;;;;;;;5.27;71.83;100264.41;683991;28;23309;-59
2021/03/15 00:47:15;;;;;;;5.60;4.95;;;;;;;5.26;71.67;100260.06;683363;28;23359;-59
2021/03/15 00:47:36;;;;;;;5.65;5.07;;;;;;;5.26;71.86;100257.38;683289;28;45971;-61
2021/03/15 00:47:57;;;;;;;6.47;5.20;;;;;;;5.25;71.71;100259.22;684237;28;22364;-61
2021/03/15 00:48:18;;;;;;;7.25;5.15;;;;;;;5.26;71.69;100265.41;688384;28;1261;-60
2021/03/15 00:48:44;;;;;;;5.82;5.15;;;;;;;5.28;71.69;100264.22;683597;28;61285;-61
2021/03/15 00:49:05;;;;;;;5.47;4.97;;;;;;;5.24;71.76;100262.88;688781;28;23011;-61
2021/03/15 00:49:26;;;;;;;6.05;5.00;;;;;;;5.24;71.95;100262.88;686225;28;21449;-61
2021/03/15 00:49:47;;;;;;;5.25;4.70;;;;;;;5.25;72.00;100264.56;685829;28;22256;-61
2021/03/15 00:50:12;;;;;;;5.13;4.63;;;;;;;5.24;71.89;100260.19;685466;28;45366;-60
2021/03/15 00:50:40;;;;;;;5.30;4.80;;;;;;;5.23;71.91;100264.72;684606;28;115126;-62
2021/03/15 00:51:06;;;;;;;6.63;5.30;;;;;;;5.21;72.05;100257.84;681932;28;137681;-62
2021/03/15 00:51:28;;;;;;;6.13;5.07;;;;;;;5.22;71.81;100263.03;682571;28;115784;-60
2021/03/15 00:51:49;;;;;;;6.35;5.15;;;;;;;5.20;71.81;100264.16;685492;28;46151;-60
2021/03/15 00:52:10;;;;;;;5.65;5.15;;;;;;;5.23;71.85;100261.19;684103;28;20831;-60
2021/03/15 00:52:32;;;;;;;5.38;4.88;;;;;;;5.22;71.90;100257.69;683951;28;23488;-61
2021/03/15 00:52:53;;;;;;;5.22;4.57;;;;;;;5.21;71.89;100261.34;683029;28;23475;-59
2021/03/15 00:53:14;;;;;;;5.00;4.50;;;;;;;5.24;71.90;100260.19;681937;28;23529;-60
2021/03/15 00:53:36;;;;;;;5.43;4.93;;;;;;;5.23;71.86;100264.72;683404;28;46653;-59
2021/03/15 00:53:57;;;;;;;5.93;5.05;;;;;;;5.23;71.92;100259.38;685671;28;23477;-59
2021/03/15 00:54:22;;;;;;;5.05;4.55;;;;;;;5.20;71.87;100261.50;680395;28;115373;-63
2021/03/15 00:54:44;;;;;;;5.45;4.50;;;;;;;5.24;71.80;100266.38;683455;28;69466;-58
2021/03/15 00:55:20;;;;;;;5.35;4.55;;;;;;;5.22;71.88;100263.03;684275;28;160593;-58
2021/03/15 00:55:41;;;;;;;5.20;4.50;;;;;;;5.21;71.72;100260.50;684275;28;66879;-59
2021/03/15 00:56:03;;;;;;;4.40;4.00;;;;;;;5.19;71.69;100268.69;685932;28;21362;-59
2021/03/15 00:56:25;;;;;;;4.93;4.43;;;;;;;5.14;71.87;100257.63;685296;28;46270;-61
2021/03/15 00:56:47;;;;;;;6.35;5.10;;;;;;;5.15;71.92;100256.59;682805;28;46295;-60
2021/03/15 00:57:08;;;;;;;5.10;4.60;;;;;;;5.15;71.81;100264.63;680440;29;47175;-62
2021/03/15 00:57:30;;;;;;;5.80;4.70;;;;;;;5.14;72.07;100267.47;676556;29;22430;-62
2021/03/15 00:57:53;;;;;;;4.65;4.20;;;;;;;5.13;71.82;100255.91;676946;29;69954;-62
2021/03/15 00:58:16;;;;;;;5.53;4.70;;;;;;;5.13;71.85;100271.16;679120;28;92170;-60
2021/03/15 00:58:38;;;;;;;5.82;4.85;;;;;;;5.13;71.92;100255.09;684352;28;20491;-62
2021/03/15 00:58:59;;;;;;;5.82;4.55;;;;;;;5.13;72.17;100263.13;686250;28;46457;-62
2021/03/15 00:59:21;;;;;;;5.40;4.57;;;;;;;5.14;72.04;100264.78;688790;28;23511;-61
2021/03/15 00:59:42;;;;;;;4.90;4.50;;;;;;;5.12;71.98;100264.94;691618;28;953;-62
2021/03/15 01:00:06;;;;;;;5.35;4.80;;;;;;;5.14;71.82;100260.28;691166;28;30856;-62
2021/03/15 01:00:49;;;;;;;4.95;4.50;;;;;;;5.14;71.91;100256.75;684892;28;137683;-62
2021/03/15 01:01:30;;;;;;;5.18;4.68;;;;;;;5.16;71.73;100255.63;678053;28;179936;-63
2021/03/15 01:01:55;;;;;;;5.10;4.70;;;;;;;5.13;72.00;100263.94;683799;28;107474;-60
2021/03/15 01:02:16;;;;;;;4.97;4.45;;;;;;;5.11;71.84;100257.91;687099;28;22896;-61
2021/03/15 01:02:38;;;;;;;4.85;4.45;;;;;;;5.12;71.95;100261.44;682856;28;46341;-61
2021/03/15 01:02:59;;;;;;;5.00;4.60;;;;;;;5.11;72.17;100262.41;683278;28;46330;-61
2021/03/15 01:03:20;;;;;;;4.97;4.47;;;;;;;5.09;72.18;100270.59;684504;28;10182;-62
2021/03/15 01:03:47;;;;;;;5.57;4.63;;;;;;;5.10;72.05;100258.06;680838;28;125739;-61
2021/03/15 01:04:09;;;;;;;5.63;4.78;;;;;;;5.11;72.16;100265.09;683886;28;30798;-61
2021/03/15 01:04:30;;;;;;;5.32;4.82;;;;;;;5.10;72.13;100263.44;685030;28;29350;-61
2021/03/15 01:05:03;;;;;;;5.03;4.40;;;;;;;5.10;72.02;100261.59;681928;28;155937;-61
2021/03/15 01:05:30;;;;;;;4.55;4.15;;;;;;;5.10;72.27;100269.63;685104;28;68975;-61
2021/03/15 01:05:53;;;;;;;4.63;4.22;;;;;;;5.11;72.19;100265.09;679091;28;138460;-62
2021/03/15 01:06:34;;;;;;;5.05;4.55;;;;;;;5.11;72.17;100262.41;674298;29;138302;-61
2021/03/15 01:07:00;;;;;;;5.07;4.57;;;;;;;5.10;72.13;100274.13;676274;29;138725;-59
2021/03/15 01:07:30;;;;;;;5.45;4.30;;;;;;;5.08;71.97;100266.25;674740;28;139026;-62
2021/03/15 01:07:51;;;;;;;5.97;4.38;;;;;;;5.08;72.25;100268.06;686024;28;21551;-62
2021/03/15 01:08:13;;;;;;;5.65;4.20;;;;;;;5.05;72.12;100262.03;685958;28;23741;-62
2021/03/15 01:08:34;;;;;;;4.83;4.03;;;;;;;5.05;72.11;100266.56;682460;28;69824;-59
2021/03/15 01:08:57;;;;;;;5.60;4.60;;;;;;;5.05;72.28;100266.56;679320;29;67487;-58
2021/03/15 01:09:27;;;;;;;5.00;4.30;;;;;;;5.06;72.51;100270.91;678947;28;136128;-60
2021/03/15 01:09:50;;;;;;;5.70;4.68;;;;;;;5.06;71.88;100265.53;685567;28;45250;-60
2021/03/15 01:10:28;;;;;;;5.18;4.20;;;;;;;5.05;72.14;100270.06;682355;28;105956;-57
2021/03/15 01:10:50;;;;;;;5.82;4.38;;;;;;;5.04;72.36;100259.50;686606;28;46235;-59
2021/03/15 01:11:11;;;;;;;4.78;4.00;;;;;;;5.06;72.19;100262.88;689386;28;39532;-59
2021/03/15 01:11:36;;;;;;;5.07;4.60;;;;;;;5.05;72.28;100267.38;683595;28;67510;-59
2021/03/15 01:12:00;;;;;;;4.13;3.72;;;;;;;5.05;72.40;100270.06;679814;28;138299;-59
2021/03/15 01:12:25;;;;;;;4.80;3.70;;;;;;;5.05;72.35;100267.38;682441;28;113592;-62
2021/03/15 01:12:47;;;;;;;5.45;4.45;;;;;;;5.06;72.39;100268.22;685546;28;22265;-62
2021/03/15 01:13:09;;;;;;;5.05;4.40;;;;;;;5.05;72.14;100266.56;684455;28;60538;-62
2021/03/15 01:13:33;;;;;;;5.43;4.43;;;;;;;5.01;72.11;100260.66;686748;28;954;-61
2021/03/15 01:13:54;;;;;;;4.55;4.15;;;;;;;5.03;72.20;100261.34;684496;28;69446;-59
2021/03/15 01:14:24;;;;;;;5.32;4.20;;;;;;;5.04;72.46;100265.69;682613;28;138013;-59
2021/03/15 01:15:10;;;;;;;4.80;4.22;;;;;;;5.05;72.28;100256.69;680227;28;132112;-59
2021/03/15 01:15:37;;;;;;;5.18;4.35;;;;;;;5.03;72.30;100260.50;680935;28;134814;-60
2021/03/15 01:16:00;;;;;;;5.60;4.28;;;;;;;5.01;72.41;100265.16;684699;28;49532;-57
2021/03/15 01:16:24;;;;;;;5.20;4.40;;;;;;;5.02;72.27;100262.34;683122;28;92320;-61
2021/03/15 01:16:45;;;;;;;4.85;3.92;;;;;;;5.02;72.32;100258.84;682909;28;46283;-60
2021/03/15 01:17:09;;;;;;;4.90;3.95;;;;;;;5.02;72.24;100258.84;684637;28;19158;-62
2021/03/15 01:17:31;;;;;;;4.97;4.47;;;;;;;5.00;72.20;100258.13;682715;28;110531;-62
2021/03/15 01:17:55;;;;;;;4.18;3.78;;;;;;;4.99;72.23;100267.16;684337;28;1147;-62
2021/03/15 01:18:16;;;;;;;4.50;4.10;;;;;;;5.00;72.20;100261.66;682632;28;44217;-62
2021/03/15 01:18:37;;;;;;;4.82;4.32;;;;;;;5.00;72.33;100258.13;685765;28;22394;-61
2021/03/15 01:18:59;;;;;;;4.93;4.38;;;;;;;4.98;72.21;100260.13;686709;28;22508;-62
2021/03/15 01:19:20;;;;;;;4.97;4.43;;;;;;;4.97;72.35;100251.25;686965;28;21560;-62
2021/03/15 01:19:41;;;;;;;5.18;4.35;;;;;;;4.97;72.08;100261.97;687053;28;43772;-61
2021/03/15 01:20:03;;;;;;;6.03;4.35;;;;;;;4.95;72.23;100249.72;688754;28;23555;-62
2021/03/15 01:20:25;;;;;;;5.07;4.10;;;;;;;4.97;72.43;100264.66;685671;28;47394;-62
2021/03/15 01:20:47;;;;;;;5.22;4.20;;;;;;;4.99;72.39;100256.47;685963;28;45332;-62
2021/03/15 01:21:08;;;;;;;4.93;4.30;;;;;;;4.98;72.42;100252.91;687754;28;3963;-60
2021/03/15 01:21:29;;;;;;;6.15;4.65;;;;;;;4.98;72.35;100252.91;686667;28;23096;-60
2021/03/15 01:21:50;;;;;;;5.90;4.68;;;;;;;4.98;72.24;100258.28;685506;28;22221;-59
2021/03/15 01:22:11;;;;;;;6.28;4.32;;;;;;;4.98;72.34;100250.25;686433;28;22255;-62
2021/03/15 01:22:32;;;;;;;4.85;3.88;;;;;;;4.97;72.47;100248.59;685764;28;45262;-62
2021/03/15 01:22:55;;;;;;;4.50;4.07;;;;;;;4.95;72.15;100247.03;686991;28;21557;-62
2021/03/15 01:23:16;;;;;;;4.40;4.00;;;;;;;4.94;72.33;100248.06;685935;28;45349;-62
2021/03/15 01:23:37;;;;;;;5.13;4.00;;;;;;;4.93;72.51;100241.84;686150;28;31327;-60
2021/03/15 01:23:58;;;;;;;4.22;3.80;;;;;;;4.91;72.46;100237.66;686644;28;22430;-59
2021/03/15 01:24:20;;;;;;;4.50;4.10;;;;;;;4.92;72.40;100248.22;686819;28;21544;-61
2021/03/15 01:24:41;;;;;;;6.13;3.97;;;;;;;4.94;72.55;100251.56;687280;28;929;-61
2021/03/15 01:25:05;;;;;;;5.00;4.03;;;;;;;4.96;72.60;100251.41;687884;28;3688;-61
2021/03/15 01:25:30;;;;;;;4.22;3.83;;;;;;;4.97;72.45;100250.41;683437;28;113593;-62
2021/03/15 01:25:51;;;;;;;4.22;3.80;;;;;;;4.95;72.55;100253.22;683160;28;115865;-61
2021/03/15 01:26:12;;;;;;;5.15;4.03;;;;;;;4.95;72.44;100242.53;688463;28;7055;-62
2021/03/15 01:26:33;;;;;;;5.28;3.65;;;;;;;4.94;72.46;100245.38;687515;28;9864;-61
2021/03/15 01:26:55;;;;;;;4.50;3.78;;;;;;;4.93;72.60;100251.72;687578;28;6406;-62
2021/03/15 01:27:16;;;;;;;4.57;4.00;;;;;;;4.94;72.62;100245.38;687229;28;21782;-62
2021/03/15 01:27:38;;;;;;;4.45;4.05;;;;;;;4.96;72.61;100254.09;687703;28;23568;-62
2021/03/15 01:28:00;;;;;;;5.00;3.88;;;;;;;4.96;72.58;100246.88;686330;28;39039;-62
2021/03/15 01:28:21;;;;;;;6.07;3.85;;;;;;;4.94;72.49;100250.75;684660;28;68331;-61
2021/03/15 01:28:43;;;;;;;4.20;3.90;;;;;;;4.94;72.51;100245.38;687578;28;11325;-61
2021/03/15 01:29:04;;;;;;;4.72;3.92;;;;;;;4.94;72.60;100248.06;687608;28;7276;-61
2021/03/15 01:29:25;;;;;;;5.82;3.90;;;;;;;4.94;72.49;100246.22;686046;28;46336;-60
2021/03/15 01:29:46;;;;;;;5.65;3.95;;;;;;;4.94;72.39;100248.88;686711;28;23529;-62
2021/03/15 01:30:10;;;;;;;6.68;3.90;;;;;;;4.94;72.49;100248.06;688303;28;6687;-62
2021/03/15 01:30:32;;;;;;;4.93;4.20;;;;;;;4.94;72.46;100248.88;684784;28;86057;-62
2021/03/15 01:30:54;;;;;;;4.40;4.00;;;;;;;4.93;72.43;100252.53;685974;28;45164;-62
2021/03/15 01:31:15;;;;;;;4.70;3.72;;;;;;;4.92;72.52;100242.00;688430;28;11733;-62
2021/03/15 01:31:36;;;;;;;5.63;3.90;;;;;;;4.93;72.43;100249.03;687298;28;14170;-62
2021/03/15 01:31:57;;;;;;;5.22;3.90;;;;;;;4.92;72.50;100253.56;687514;28;22295;-61
2021/03/15 01:32:18;;;;;;;5.07;4.07;;;;;;;4.91;72.77;100243.84;687208;28;20464;-62
2021/03/15 01:32:39;;;;;;;4.35;3.95;;;;;;;4.92;72.52;100248.22;687599;28;23597;-62
2021/03/15 01:33:00;;;;;;;4.07;3.67;;;;;;;4.91;72.70;100243.84;686523;28;44395;-58
2021/03/15 01:33:21;;;;;;;4.03;3.70;;;;;;;4.93;72.56;100249.88;687577;28;22467;-60
2021/03/15 01:33:42;;;;;;;4.20;3.80;;;;;;;4.92;72.42;100250.88;687618;28;20710;-62
2021/03/15 01:34:03;;;;;;;4.32;3.78;;;;;;;4.93;72.49;100254.41;688047;28;11386;-59
2021/03/15 01:34:25;;;;;;;4.88;3.80;;;;;;;4.92;72.41;100250.88;687244;28;22505;-59
2021/03/15 01:34:46;;;;;;;4.85;3.70;;;;;;;4.93;72.60;100249.88;687644;28;916;-58
2021/03/15 01:35:08;;;;;;;4.93;3.88;;;;;;;4.95;72.89;100255.91;687648;28;24342;-61
2021/03/15 01:35:29;;;;;;;4.72;3.90;;;;;;;4.96;72.61;100248.75;686444;28;47285;-59
2021/03/15 01:35:51;;;;;;;6.40;4.13;;;;;;;4.96;72.42;100248.75;686703;28;22401;-62
2021/03/15 01:36:12;;;;;;;4.63;3.92;;;;;;;4.95;72.30;100249.72;687891;28;23469;-60
2021/03/15 01:36:34;;;;;;;4.60;4.20;;;;;;;4.93;72.51;100249.88;687078;28;32602;-59
2021/03/15 01:36:55;;;;;;;4.82;4.22;;;;;;;4.92;72.48;100247.34;685828;28;43939;-61
2021/03/15 01:37:16;;;;;;;5.05;4.07;;;;;;;4.91;72.73;100253.72;686687;28;23518;-60
2021/03/15 01:37:38;;;;;;;5.13;3.92;;;;;;;4.89;72.77;100245.84;688068;28;21474;-61
2021/03/15 01:38:00;;;;;;;4.30;3.90;;;;;;;4.88;72.87;100244.16;687212;28;23479;-58
2021/03/15 01:38:22;;;;;;;4.10;3.70;;;;;;;4.88;72.61;100244.97;688102;28;1590;-62
2021/03/15 01:38:43;;;;;;;4.35;3.83;;;;;;;4.89;72.70;100240.50;688102;28;11359;-62
2021/03/15 01:39:05;;;;;;;4.50;3.60;;;;;;;4.88;72.62;100244.16;687333;28;22386;-61
2021/03/15 01:39:26;;;;;;;3.92;3.58;;;;;;;4.86;72.52;100248.81;686325;28;45310;-62
2021/03/15 01:39:47;;;;;;;3.80;3.40;;;;;;;4.85;72.83;100242.59;688262;28;897;-61
2021/03/15 01:40:09;;;;;;;4.00;3.60;;;;;;;4.87;72.76;100243.31;688778;28;1015;-62
2021/03/15 01:40:31;;;;;;;4.45;3.70;;;;;;;4.83;72.79;100233.91;686538;28;46256;-62
2021/03/15 01:40:52;;;;;;;4.78;3.75;;;;;;;4.86;72.78;100252.31;686711;28;33112;-62
2021/03/15 01:41:13;;;;;;;5.72;4.15;;;;;;;4.87;72.59;100242.44;687578;28;20500;-59
2021/03/15 01:41:34;;;;;;;4.65;4.03;;;;;;;4.88;72.75;100244.16;687227;28;11901;-59
2021/03/15 01:41:56;;;;;;;5.78;3.67;;;;;;;4.86;72.64;100232.75;687660;28;1398;-59
2021/03/15 01:42:17;;;;;;;5.00;3.50;;;;;;;4.86;72.53;100241.63;686457;28;46215;-59
2021/03/15 01:42:38;;;;;;;3.92;3.50;;;;;;;4.86;72.76;100246.13;688297;28;18592;-62
2021/03/15 01:43:01;;;;;;;4.95;3.80;;;;;;;4.89;72.77;100245.84;688208;28;935;-62
2021/03/15 01:43:22;;;;;;;4.55;3.63;;;;;;;4.90;72.74;100238.66;685748;28;46182;-62
2021/03/15 01:43:43;;;;;;;4.72;3.50;;;;;;;4.89;72.73;100245.84;687787;28;16026;-59
2021/03/15 01:44:05;;;;;;;6.05;3.75;;;;;;;4.88;72.55;100241.47;687209;28;23404;-60
2021/03/15 01:44:27;;;;;;;4.40;3.70;;;;;;;4.88;72.58;100242.31;686424;28;46351;-60
2021/03/15 01:44:50;;;;;;;4.95;3.88;;;;;;;4.88;72.54;100241.47;687360;28;15892;-62
2021/03/15 01:45:12;;;;;;;4.55;3.70;;;;;;;4.87;72.60;100237.97;688437;28;5189;-62
2021/03/15 01:45:34;;;;;;;4.03;3.63;;;;;;;4.85;72.67;100239.09;686407;28;46341;-58
2021/03/15 01:45:55;;;;;;;3.88;3.58;;;;;;;4.85;72.60;100239.94;685432;28;44384;-58
2021/03/15 01:46:16;;;;;;;3.80;3.50;;;;;;;4.85;72.72;100239.09;687534;28;23492;-62